createdAt,value
2023-03-17T00:01:09.799Z,26.97
2023-03-17T00:03:38.676Z,25.03
2023-03-17T00:06:05.833Z,23.83
2023-03-17T00:08:34.787Z,24.87
2023-03-17T00:11:01.893Z,23.93
2023-03-17T00:13:28.934Z,24.43
2023-03-17T00:15:59.665Z,22.30
2023-03-17T00:18:26.247Z,24.27
2023-03-17T00:20:52.774Z,23.80
2023-03-17T00:23:21.879Z,23.50
2023-03-17T00:25:49.097Z,22.53
2023-03-17T00:28:24.836Z,23.57
2023-03-17T00:30:57.456Z,22.63
2023-03-17T00:33:26.951Z,24.17
2023-03-17T00:35:54.266Z,24.33
2023-03-17T00:38:21.896Z,23.20
2023-03-17T00:40:48.814Z,23.13
2023-03-17T00:43:15.349Z,23.00
2023-03-17T00:45:42.509Z,22.73
2023-03-17T00:48:15.006Z,22.27
2023-03-17T00:50:42.585Z,22.00
2023-03-17T00:53:15.389Z,24.17
2023-03-17T00:55:43.513Z,22.63
2023-03-17T00:58:14.895Z,24.60
2023-03-17T01:00:41.480Z,22.03
2023-03-17T01:03:11.463Z,24.73
2023-03-17T01:05:38.669Z,23.90
2023-03-17T01:08:05.943Z,23.70
2023-03-17T01:10:32.667Z,23.37
2023-03-17T01:12:59.622Z,22.90
2023-03-17T01:15:30.026Z,22.97
2023-03-17T06:04:07.867Z,18.70
2023-03-17T06:06:34.766Z,18.27
2023-03-17T06:09:01.598Z,17.53
2023-03-17T06:11:28.329Z,17.17
2023-03-17T06:13:54.856Z,16.47
2023-03-17T06:16:21.444Z,16.60
2023-03-17T06:18:48.663Z,15.27
2023-03-17T06:21:15.677Z,15.17
2023-03-17T06:23:42.300Z,15.10
2023-03-17T06:26:08.993Z,15.53
2023-03-17T06:28:35.819Z,15.23
2023-03-17T06:31:04.135Z,14.33
2023-03-17T06:33:32.683Z,14.63
2023-03-17T06:36:00.536Z,14.20
2023-03-17T06:38:27.552Z,15.07
2023-03-17T06:40:54.038Z,13.50
2023-03-17T06:43:22.156Z,13.73
2023-03-17T06:45:48.940Z,13.80
2023-03-17T06:48:15.457Z,12.90
2023-03-17T06:50:42.052Z,12.97
2023-03-17T06:53:08.564Z,13.57
2023-03-17T06:55:35.191Z,13.50
2023-03-17T06:58:03.096Z,14.43
2023-03-17T07:00:30.403Z,13.60
2023-03-17T07:02:57.763Z,12.77
2023-03-17T07:05:24.381Z,11.57
2023-03-17T07:07:50.951Z,11.53
2023-03-17T07:10:18.104Z,12.80
2023-03-17T07:12:45.312Z,13.10
2023-03-17T07:15:12.629Z,12.60
2023-03-17T07:17:39.335Z,14.37
2023-03-17T07:20:06.532Z,14.57
2023-03-17T07:22:33.156Z,14.20
2023-03-17T07:24:59.976Z,14.77
2023-03-17T07:27:26.663Z,14.70
2023-03-17T07:29:53.455Z,15.10
2023-03-17T07:32:20.185Z,15.67
2023-03-17T07:34:47.032Z,15.30
2023-03-17T07:37:13.637Z,14.67
2023-03-17T07:39:40.935Z,13.23
2023-03-17T07:42:08.723Z,13.37
2023-03-17T07:44:36.365Z,12.33
2023-03-17T07:47:07.638Z,11.77
2023-03-17T07:49:41.281Z,11.63
2023-03-17T07:52:10.487Z,11.40
2023-03-17T07:54:37.691Z,12.37
2023-03-17T07:57:05.079Z,13.43
2023-03-17T07:59:31.952Z,12.60
2023-03-17T08:02:00.239Z,12.17
2023-03-17T08:04:27.683Z,11.93
2023-03-17T08:06:54.632Z,12.10
2023-03-17T08:09:22.340Z,11.50
2023-03-17T08:11:49.543Z,11.77
2023-03-17T08:14:16.373Z,11.27
2023-03-17T08:16:42.981Z,11.67
2023-03-17T08:19:11.048Z,11.90
2023-03-17T08:21:38.087Z,11.53
2023-03-17T08:24:05.322Z,10.90
2023-03-17T08:26:33.880Z,9.73
2023-03-17T08:29:01.473Z,9.87
2023-03-17T08:31:31.393Z,9.20
2023-03-17T08:33:58.674Z,9.63
2023-03-17T08:36:26.225Z,7.67
2023-03-17T08:38:53.031Z,9.63
2023-03-17T08:41:22.941Z,6.97
2023-03-17T08:43:51.094Z,6.33
2023-03-17T08:46:27.211Z,6.40
2023-03-17T08:48:56.394Z,5.70
2023-03-17T08:51:25.445Z,5.77
2023-03-17T08:53:53.253Z,5.27
2023-03-17T08:56:20.037Z,5.13
2023-03-17T08:58:48.566Z,5.23
2023-03-17T09:01:15.846Z,5.60
2023-03-17T09:03:43.189Z,5.60
2023-03-17T09:06:12.469Z,5.40
2023-03-17T09:08:44.669Z,4.87
2023-03-17T09:11:15.213Z,5.10
2023-03-17T09:13:42.088Z,4.23
2023-03-17T09:16:09.065Z,4.27
2023-03-17T09:18:36.145Z,4.20
2023-03-17T09:21:03.654Z,4.30
2023-03-17T09:23:30.960Z,4.63
2023-03-17T09:25:57.682Z,4.57
2023-03-17T09:28:24.810Z,5.23
2023-03-17T09:30:51.713Z,4.27
2023-03-17T09:33:18.686Z,4.00
2023-03-17T09:35:45.544Z,3.90
2023-03-17T09:38:12.904Z,4.30
2023-03-17T09:40:51.440Z,4.03
2023-03-17T09:43:29.047Z,4.23
2023-03-17T09:45:56.140Z,3.70
2023-03-17T09:48:26.102Z,3.37
2023-03-17T09:50:55.729Z,3.80
2023-03-17T09:53:28.565Z,3.30
2023-03-17T09:55:58.579Z,3.33
2023-03-17T09:58:31.289Z,3.13
2023-03-17T10:00:58.801Z,3.40
2023-03-17T10:03:25.832Z,3.80
2023-03-17T10:05:52.814Z,3.77
2023-03-17T10:08:31.701Z,3.57
2023-03-17T10:10:58.690Z,3.70
2023-03-17T10:13:47.230Z,3.40
2023-03-17T10:16:18.768Z,3.63
2023-03-17T10:18:52.182Z,3.50
2023-03-17T10:21:24.292Z,3.10
2023-03-17T10:23:51.229Z,4.30
2023-03-17T10:26:40.054Z,4.20
2023-03-17T10:29:17.584Z,4.17
2023-03-17T10:31:44.872Z,4.40
2023-03-17T10:34:20.451Z,4.20
2023-03-17T10:36:53.434Z,4.13
2023-03-17T10:39:23.075Z,4.03
2023-03-17T10:42:00.341Z,4.27
2023-03-17T10:44:56.309Z,3.97
2023-03-17T10:47:38.270Z,4.03
2023-03-17T10:50:23.055Z,4.47
2023-03-17T10:52:58.023Z,4.43
2023-03-17T10:55:29.336Z,3.93
2023-03-17T10:58:16.786Z,4.93
2023-03-17T11:00:58.455Z,4.77
2023-03-17T11:03:28.630Z,4.53
2023-03-17T11:05:56.791Z,4.40
2023-03-17T11:08:24.051Z,4.53
2023-03-17T11:10:56.705Z,5.37
2023-03-17T11:13:28.966Z,5.27
2023-03-17T11:16:24.802Z,5.33
2023-03-17T11:18:55.122Z,4.03
2023-03-17T11:21:52.506Z,4.10
2023-03-17T11:24:23.009Z,4.10
2023-03-17T11:27:00.057Z,4.33
2023-03-17T11:29:57.682Z,3.70
2023-03-17T11:32:44.527Z,4.10
2023-03-17T11:35:14.190Z,4.83
2023-03-17T11:37:49.035Z,4.00
2023-03-17T11:40:20.648Z,3.60
2023-03-17T11:42:59.365Z,3.63
2023-03-17T11:46:20.166Z,3.57
2023-03-17T11:49:24.991Z,3.90
2023-03-17T11:51:59.224Z,3.93
2023-03-17T11:54:41.474Z,4.27
2023-03-17T11:57:32.943Z,4.43
2023-03-17T12:00:07.141Z,4.33
2023-03-17T12:02:39.442Z,5.13
2023-03-17T12:05:10.339Z,4.50
2023-03-17T12:07:42.376Z,5.00
2023-03-17T12:10:22.597Z,3.83
2023-03-17T12:13:27.090Z,5.07
2023-03-17T12:15:58.482Z,5.03
2023-03-17T12:18:39.823Z,5.23
2023-03-17T12:21:12.066Z,4.60
2023-03-17T12:24:04.388Z,4.97
2023-03-17T12:26:35.587Z,5.23
2023-03-17T12:29:15.390Z,4.73
2023-03-17T12:31:47.160Z,4.03
2023-03-17T12:34:20.450Z,5.10
2023-03-17T12:36:49.042Z,4.40
2023-03-17T12:39:21.908Z,4.27
2023-03-17T12:42:01.709Z,4.63
2023-03-17T12:45:19.797Z,4.63
2023-03-17T12:48:42.304Z,4.63
2023-03-17T12:51:24.968Z,5.47
2023-03-17T12:53:52.515Z,6.23
2023-03-17T12:56:30.909Z,6.50
2023-03-17T12:59:06.719Z,7.50
2023-03-17T13:01:40.746Z,6.50
2023-03-17T13:04:13.166Z,5.27
2023-03-17T13:06:44.997Z,4.60
2023-03-17T13:09:38.507Z,5.13
2023-03-17T13:12:06.934Z,5.17
2023-03-17T13:14:44.723Z,5.20
2023-03-17T13:17:17.594Z,5.47
2023-03-17T13:20:11.378Z,4.70
2023-03-17T13:22:40.885Z,4.30
2023-03-17T13:25:35.390Z,3.70
2023-03-17T13:28:13.865Z,3.93
2023-03-17T13:30:40.488Z,3.77
2023-03-17T13:33:09.792Z,3.73
2023-03-17T13:35:41.814Z,3.77
2023-03-17T13:38:27.199Z,4.20
2023-03-17T13:41:22.584Z,3.80
2023-03-17T13:44:15.710Z,4.13
2023-03-17T13:46:49.109Z,4.20
2023-03-17T13:49:22.682Z,4.10
2023-03-17T13:52:00.256Z,5.03
2023-03-17T13:54:28.077Z,4.80
2023-03-17T13:56:56.382Z,4.47
2023-03-17T14:00:02.016Z,5.03
2023-03-17T14:02:33.929Z,4.40
2023-03-17T14:05:04.639Z,4.70
2023-03-17T14:07:38.858Z,4.63
2023-03-17T14:10:05.753Z,5.07
2023-03-17T14:12:39.698Z,4.70
2023-03-17T14:15:15.462Z,4.57
2023-03-17T14:17:50.584Z,4.57
2023-03-17T14:20:17.121Z,4.40
2023-03-17T14:22:46.049Z,5.03
2023-03-17T14:25:18.412Z,4.43
2023-03-17T14:27:48.469Z,4.93
2023-03-17T14:30:34.357Z,4.93
2023-03-17T14:33:04.698Z,4.67
2023-03-17T14:35:39.084Z,5.37
2023-03-17T14:38:22.105Z,5.40
2023-03-17T14:40:49.923Z,5.40
2023-03-17T14:43:16.817Z,5.90
2023-03-17T14:45:48.535Z,6.17
2023-03-17T14:48:18.261Z,6.80
2023-03-17T14:51:20.968Z,5.73
2023-03-17T14:53:48.800Z,5.90
2023-03-17T14:56:15.692Z,6.00
2023-03-17T14:58:44.017Z,5.80
2023-03-17T15:01:39.725Z,6.73
2023-03-17T15:04:06.592Z,6.60
2023-03-17T15:06:37.547Z,6.03
2023-03-17T15:09:17.627Z,6.90
2023-03-17T15:11:44.794Z,6.50
2023-03-17T15:14:35.508Z,7.17
2023-03-17T15:17:04.403Z,7.53
2023-03-17T15:19:49.200Z,7.70
2023-03-17T15:22:26.025Z,7.87
2023-03-17T15:25:01.348Z,7.87
2023-03-17T15:27:29.420Z,7.87
2023-03-17T15:29:56.474Z,9.00
2023-03-17T15:32:25.753Z,7.90
2023-03-17T15:34:54.716Z,6.93
2023-03-17T15:37:27.008Z,7.20
2023-03-17T15:39:55.212Z,6.53
2023-03-17T15:42:25.332Z,7.50
2023-03-17T15:44:52.528Z,6.53
2023-03-17T15:47:21.161Z,6.90
2023-03-17T15:49:49.704Z,6.33
2023-03-17T15:52:27.349Z,6.37
2023-03-17T15:54:56.222Z,5.90
2023-03-17T15:57:23.085Z,7.00
2023-03-17T15:59:49.546Z,7.00
2023-03-17T16:02:27.478Z,7.37
2023-03-17T16:04:55.154Z,7.07
2023-03-17T16:07:22.355Z,6.60
2023-03-17T16:09:48.806Z,6.17
2023-03-17T16:12:15.894Z,5.70
2023-03-17T16:14:43.056Z,6.13
2023-03-17T16:17:28.716Z,6.50
2023-03-17T16:19:56.223Z,6.23
2023-03-17T16:22:28.869Z,6.47
2023-03-17T16:24:55.439Z,6.40
2023-03-17T16:27:22.362Z,5.90
2023-03-17T16:29:49.025Z,6.90
2023-03-17T16:32:15.660Z,6.37
2023-03-17T16:34:42.586Z,6.70
2023-03-17T16:37:14.985Z,7.80
2023-03-17T16:39:42.473Z,7.33
2023-03-17T16:42:24.416Z,8.63
2023-03-17T16:44:51.100Z,7.00
2023-03-17T16:47:17.784Z,7.43
2023-03-17T16:49:44.417Z,6.60
2023-03-17T16:52:12.112Z,5.87
2023-03-17T16:54:38.775Z,6.77
2023-03-17T16:57:07.772Z,6.67
2023-03-17T16:59:34.708Z,6.43
2023-03-17T17:02:01.975Z,7.57
2023-03-17T17:04:28.749Z,6.30
2023-03-17T17:06:56.752Z,7.07
2023-03-17T17:09:23.342Z,6.30
2023-03-17T17:11:49.917Z,5.60
2023-03-17T17:14:16.513Z,5.63
2023-03-17T17:16:43.179Z,5.97
2023-03-17T17:19:16.228Z,7.07
2023-03-17T17:21:43.637Z,5.93
2023-03-17T17:24:12.234Z,6.23
2023-03-17T17:26:38.924Z,6.60
2023-03-17T17:29:05.772Z,6.80
2023-03-17T17:31:32.313Z,6.73
2023-03-17T17:33:58.805Z,5.30
2023-03-17T17:36:26.134Z,6.40
2023-03-17T17:38:52.668Z,6.27
2023-03-17T17:41:21.558Z,6.07
2023-03-17T17:43:48.925Z,6.67
2023-03-17T17:46:21.505Z,7.03
2023-03-17T17:48:49.058Z,6.57
2023-03-17T17:51:15.921Z,7.50
2023-03-17T17:53:42.408Z,6.57
2023-03-17T17:56:14.105Z,6.97
2023-03-17T17:58:40.600Z,5.93
2023-03-17T18:01:07.298Z,7.50
2023-03-17T18:03:34.023Z,7.00
2023-03-17T18:06:01.115Z,6.43
2023-03-17T18:08:27.751Z,7.03
2023-03-17T18:10:55.877Z,6.47
2023-03-17T18:13:22.433Z,6.93
2023-03-17T18:15:49.434Z,6.87
2023-03-17T18:18:16.019Z,7.10
2023-03-17T18:20:42.613Z,7.03
2023-03-17T18:23:09.263Z,6.70
2023-03-17T18:25:37.066Z,6.20
2023-03-17T18:28:03.702Z,6.30
2023-03-17T18:30:31.908Z,6.30
2023-03-17T18:33:04.082Z,6.80
2023-03-17T18:35:30.921Z,7.27
2023-03-17T18:37:57.949Z,6.27
2023-03-17T18:40:25.640Z,7.80
2023-03-17T18:42:52.271Z,8.03
2023-03-17T18:45:18.816Z,6.73
2023-03-17T18:47:45.303Z,6.37
2023-03-17T18:50:13.668Z,7.97
2023-03-17T18:52:41.311Z,7.17
2023-03-17T18:55:08.922Z,8.07
2023-03-17T18:57:35.719Z,7.97
2023-03-17T19:00:02.306Z,9.57
2023-03-17T19:02:29.090Z,10.77
2023-03-17T19:04:55.988Z,10.73
2023-03-17T19:07:22.580Z,8.27
2023-03-17T19:09:49.286Z,9.27
2023-03-17T19:12:15.776Z,8.53
2023-03-17T19:14:42.620Z,7.97
2023-03-17T19:17:09.247Z,8.17
2023-03-17T19:19:36.711Z,7.77
2023-03-17T19:22:03.973Z,7.47
2023-03-17T19:24:31.593Z,7.40
2023-03-17T19:26:58.213Z,7.53
2023-03-17T19:29:24.810Z,7.97
2023-03-17T19:31:51.282Z,9.17
2023-03-17T19:34:17.824Z,8.43
2023-03-17T19:36:47.274Z,7.50
2023-03-17T19:39:14.564Z,9.20
2023-03-17T19:41:41.065Z,7.83
2023-03-17T19:44:07.722Z,7.93
2023-03-17T19:46:36.534Z,8.03
2023-03-17T19:49:04.719Z,8.70
2023-03-17T19:51:31.919Z,8.87
2023-03-17T19:53:58.576Z,8.67
2023-03-17T19:56:25.118Z,9.77
2023-03-17T19:58:52.044Z,9.53
2023-03-17T20:01:18.782Z,9.70
2023-03-17T20:03:46.195Z,9.77
2023-03-17T20:06:13.768Z,10.17
2023-03-17T20:08:42.735Z,9.03
2023-03-17T20:11:11.533Z,10.17
2023-03-17T20:13:38.878Z,9.13
2023-03-17T20:16:07.061Z,9.43
2023-03-17T20:18:34.038Z,9.30
2023-03-17T20:21:05.359Z,10.47
2023-03-17T20:23:32.197Z,9.30
2023-03-17T20:25:58.915Z,9.47
2023-03-17T20:28:25.499Z,9.03
2023-03-17T20:30:52.460Z,9.83
2023-03-17T20:33:19.026Z,9.60
2023-03-17T20:35:48.933Z,10.03
2023-03-17T20:38:15.484Z,8.80
2023-03-17T20:40:42.305Z,8.40
2023-03-17T20:43:09.459Z,9.43
2023-03-17T20:45:37.006Z,9.37
2023-03-17T20:48:05.025Z,9.53
2023-03-17T20:50:32.889Z,8.80
2023-03-17T20:52:59.846Z,8.60
2023-03-17T20:55:26.346Z,8.80
2023-03-17T20:57:52.901Z,9.00
2023-03-17T21:00:21.237Z,9.83
2023-03-17T21:02:50.630Z,9.10
2023-03-17T21:05:23.106Z,8.60
2023-03-17T21:07:50.616Z,8.23
2023-03-17T21:10:17.953Z,7.37
2023-03-17T21:12:44.902Z,8.47
2023-03-17T21:15:12.961Z,8.03
2023-03-17T21:17:39.958Z,7.93
2023-03-17T21:20:07.470Z,8.40
2023-03-17T21:22:36.158Z,8.13
2023-03-17T21:25:04.101Z,8.23
2023-03-17T21:27:30.678Z,8.43
2023-03-17T21:29:57.334Z,8.00
2023-03-17T21:32:24.498Z,7.70
2023-03-17T21:34:51.436Z,7.20
2023-03-17T21:37:18.819Z,8.80
2023-03-17T21:39:45.940Z,8.17
2023-03-17T21:42:12.781Z,8.27
2023-03-17T21:44:40.657Z,7.60
2023-03-17T21:47:07.713Z,7.60
2023-03-17T21:49:34.312Z,8.30
2023-03-17T21:52:01.421Z,7.67
2023-03-17T21:54:28.442Z,8.07
2023-03-17T21:56:54.945Z,7.20
2023-03-17T21:59:21.541Z,7.70
2023-03-17T22:01:52.111Z,8.50
2023-03-17T22:04:18.872Z,7.67
2023-03-17T22:06:45.523Z,7.43
2023-03-17T22:09:15.337Z,7.87
2023-03-17T22:11:43.036Z,8.10
2023-03-17T22:14:12.027Z,7.50
2023-03-17T22:16:38.577Z,8.20
2023-03-17T22:19:05.111Z,8.07
2023-03-17T22:21:31.818Z,8.70
2023-03-17T22:23:58.567Z,8.20
2023-03-17T22:26:25.108Z,7.40
2023-03-17T22:28:51.681Z,6.87
2023-03-17T22:31:23.475Z,8.00
2023-03-17T22:33:52.621Z,7.90
2023-03-17T22:36:19.244Z,8.40
2023-03-17T22:38:47.068Z,7.90
2023-03-17T22:41:16.578Z,8.43
2023-03-17T22:43:43.443Z,8.53
2023-03-17T22:46:11.014Z,8.30
2023-03-17T22:48:37.611Z,7.23
2023-03-17T22:51:06.391Z,8.23
2023-03-17T22:53:33.886Z,7.90
2023-03-17T22:56:00.780Z,7.73
2023-03-17T22:58:27.706Z,7.80
2023-03-17T23:00:55.343Z,7.50
2023-03-17T23:03:22.961Z,7.07
2023-03-17T23:05:51.221Z,6.73
2023-03-17T23:08:19.159Z,7.07
2023-03-17T23:10:48.798Z,6.57
2023-03-17T23:13:16.038Z,7.17
2023-03-17T23:15:42.606Z,6.37
2023-03-17T23:18:10.305Z,7.23
2023-03-17T23:20:39.903Z,6.83
2023-03-17T23:23:08.391Z,6.50
2023-03-17T23:25:36.525Z,6.90
2023-03-17T23:28:03.106Z,6.33
2023-03-17T23:30:30.872Z,5.90
2023-03-17T23:32:58.102Z,6.60
2023-03-17T23:35:25.253Z,6.77
2023-03-17T23:37:52.019Z,6.73
2023-03-17T23:40:18.614Z,6.53
2023-03-17T23:42:48.054Z,6.43
2023-03-17T23:45:18.386Z,7.07
2023-03-17T23:47:47.074Z,5.50
2023-03-17T23:50:14.593Z,6.13
2023-03-17T23:52:42.413Z,6.50
2023-03-17T23:55:11.824Z,5.33
2023-03-17T23:57:38.961Z,6.27
